createdAt,value
2022-10-09T00:00:20.226Z,30.11
2022-10-09T00:02:46.854Z,29.79
2022-10-09T00:04:53.854Z,30.01
2022-10-09T00:07:00.444Z,29.86
2022-10-09T00:09:06.901Z,29.73
2022-10-09T00:11:24.664Z,29.84
2022-10-09T00:13:30.716Z,29.90
2022-10-09T00:15:47.988Z,29.87
2022-10-09T00:17:54.466Z,29.96
2022-10-09T00:20:00.878Z,29.85
2022-10-09T00:22:06.929Z,29.80
2022-10-09T00:24:13.036Z,30.06
2022-10-09T00:26:19.998Z,29.89
2022-10-09T00:28:29.334Z,29.84
2022-10-09T00:30:35.886Z,29.88
2022-10-09T00:32:42.339Z,29.80
2022-10-09T00:34:48.806Z,29.80
2022-10-09T00:36:55.215Z,30.06
2022-10-09T00:39:01.686Z,29.96
2022-10-09T00:41:08.040Z,30.06
2022-10-09T00:43:20.394Z,29.97
2022-10-09T00:45:27.615Z,29.99
2022-10-09T00:47:41.582Z,30.11
2022-10-09T00:49:49.740Z,30.21
2022-10-09T00:52:00.275Z,30.41
2022-10-09T00:54:10.486Z,30.38
2022-10-09T00:56:17.227Z,30.61
2022-10-09T00:58:25.043Z,30.69
2022-10-09T01:00:31.662Z,30.52
2022-10-09T01:02:37.991Z,30.52
2022-10-09T01:04:44.547Z,30.84
2022-10-09T01:07:15.391Z,30.80
2022-10-09T01:09:39.163Z,30.89
2022-10-09T01:12:02.080Z,31.11
2022-10-09T01:14:25.748Z,31.29
2022-10-09T01:16:42.830Z,31.18
2022-10-09T01:19:03.977Z,31.60
2022-10-09T01:21:34.290Z,31.67
2022-10-09T01:24:11.612Z,31.95
2022-10-09T01:26:18.033Z,32.10
2022-10-09T01:28:30.029Z,32.27
2022-10-09T01:30:38.279Z,32.34
2022-10-09T01:32:52.757Z,32.46
2022-10-09T01:35:00.658Z,32.70
2022-10-09T01:37:09.217Z,32.66
2022-10-09T01:39:22.982Z,32.89
2022-10-09T01:41:29.324Z,33.28
2022-10-09T01:43:35.479Z,33.54
2022-10-09T01:45:46.655Z,33.77
2022-10-09T01:47:52.360Z,33.88
2022-10-09T01:50:15.306Z,34.10
2022-10-09T01:52:42.571Z,34.37
2022-10-09T01:55:22.860Z,34.55
2022-10-09T01:57:45.353Z,34.85
2022-10-09T01:59:53.829Z,34.96
2022-10-09T02:02:02.172Z,35.24
2022-10-09T02:04:12.735Z,35.37
2022-10-09T02:06:20.627Z,35.74
2022-10-09T02:08:27.699Z,36.00
2022-10-09T02:10:36.918Z,36.27
2022-10-09T02:12:48.574Z,36.47
2022-10-09T02:14:55.153Z,36.58
2022-10-09T02:17:16.503Z,37.00
2022-10-09T02:19:31.184Z,37.20
2022-10-09T02:21:46.450Z,37.44
2022-10-09T02:23:54.799Z,37.70
2022-10-09T02:26:01.514Z,37.96
2022-10-09T02:28:08.214Z,38.19
2022-10-09T02:30:16.687Z,38.32
2022-10-09T02:32:24.382Z,38.66
2022-10-09T02:34:31.004Z,38.92
2022-10-09T02:36:38.747Z,39.08
2022-10-09T02:38:48.117Z,39.03
2022-10-09T02:40:54.213Z,39.52
2022-10-09T02:43:00.349Z,39.50
2022-10-09T02:45:06.896Z,39.62
2022-10-09T02:47:13.116Z,39.87
2022-10-09T02:49:19.368Z,40.10
2022-10-09T02:51:26.570Z,40.26
2022-10-09T02:53:33.446Z,40.47
2022-10-09T02:55:39.807Z,40.48
2022-10-09T02:57:46.453Z,40.64
2022-10-09T02:59:52.462Z,40.82
2022-10-09T03:01:58.627Z,41.12
2022-10-09T03:04:05.626Z,41.06
2022-10-09T03:06:17.675Z,41.40
2022-10-09T03:08:24.013Z,41.57
2022-10-09T03:10:30.033Z,41.49
2022-10-09T03:12:35.951Z,41.66
2022-10-09T03:14:41.914Z,41.92
2022-10-09T03:16:48.281Z,42.05
2022-10-09T03:18:55.096Z,42.05
2022-10-09T03:21:01.378Z,42.08
2022-10-09T03:23:08.152Z,42.41
2022-10-09T03:25:14.475Z,42.37
2022-10-09T03:27:20.566Z,42.54
2022-10-09T03:29:27.259Z,42.70
2022-10-09T03:31:51.216Z,42.80
2022-10-09T03:33:59.099Z,43.01
2022-10-09T03:36:06.866Z,43.02
2022-10-09T03:38:12.845Z,43.20
2022-10-09T03:40:19.492Z,43.32
2022-10-09T03:42:26.057Z,43.48
2022-10-09T03:44:31.996Z,43.67
2022-10-09T03:46:38.075Z,43.76
2022-10-09T03:48:44.156Z,43.89
2022-10-09T03:50:50.123Z,43.98
2022-10-09T03:52:56.168Z,44.21
2022-10-09T03:55:02.222Z,44.24
2022-10-09T03:57:08.336Z,44.42
2022-10-09T03:59:14.417Z,44.51
2022-10-09T04:01:22.027Z,44.63
2022-10-09T04:03:30.911Z,44.69
2022-10-09T04:05:37.526Z,44.87
2022-10-09T04:07:43.460Z,44.95
2022-10-09T04:09:49.504Z,45.02
2022-10-09T04:11:55.852Z,45.17
2022-10-09T04:14:02.249Z,45.27
2022-10-09T04:16:10.490Z,45.38
2022-10-09T04:18:16.479Z,45.47
2022-10-09T04:20:22.852Z,45.61
2022-10-09T04:22:29.327Z,45.67
2022-10-09T04:24:35.484Z,45.82
2022-10-09T04:26:41.527Z,45.89
2022-10-09T04:28:47.681Z,45.97
2022-10-09T04:30:54.009Z,46.14
2022-10-09T04:33:00.979Z,46.29
2022-10-09T04:35:07.634Z,46.35
2022-10-09T04:37:14.149Z,46.37
2022-10-09T04:39:20.247Z,46.58
2022-10-09T04:41:26.367Z,46.73
2022-10-09T04:43:33.092Z,46.75
2022-10-09T04:45:42.736Z,46.98
2022-10-09T04:47:48.799Z,47.00
2022-10-09T04:49:54.758Z,47.15
2022-10-09T04:52:00.895Z,47.35
2022-10-09T04:54:06.996Z,47.31
2022-10-09T04:56:16.742Z,47.48
2022-10-09T04:58:22.816Z,47.58
2022-10-09T05:00:29.165Z,47.80
2022-10-09T05:02:35.124Z,48.05
2022-10-09T05:04:41.629Z,48.37
2022-10-09T05:06:47.650Z,48.28
2022-10-09T05:08:55.936Z,48.43
2022-10-09T05:11:08.250Z,48.55
2022-10-09T05:13:14.504Z,48.70
2022-10-09T05:15:21.057Z,49.01
2022-10-09T05:17:27.138Z,49.15
2022-10-09T05:19:34.269Z,49.18
2022-10-09T05:21:40.808Z,49.46
2022-10-09T05:23:47.556Z,49.65
2022-10-09T05:26:01.716Z,49.71
2022-10-09T05:28:08.285Z,49.98
2022-10-09T05:30:14.618Z,50.12
2022-10-09T05:32:21.201Z,50.08
2022-10-09T05:34:28.067Z,50.26
2022-10-09T05:36:34.809Z,50.51
2022-10-09T05:38:41.500Z,50.63
2022-10-09T05:41:02.641Z,50.70
2022-10-09T05:43:08.781Z,50.82
2022-10-09T05:45:14.964Z,51.00
2022-10-09T05:47:20.923Z,51.21
2022-10-09T05:49:27.005Z,51.34
2022-10-09T05:51:35.696Z,51.46
2022-10-09T05:53:43.206Z,51.59
2022-10-09T05:55:49.197Z,51.73
2022-10-09T05:57:55.478Z,51.69
2022-10-09T06:00:01.522Z,51.84
2022-10-09T06:02:07.812Z,51.99
2022-10-09T06:04:22.737Z,52.09
2022-10-09T06:06:34.193Z,52.31
2022-10-09T06:08:40.740Z,52.27
2022-10-09T06:10:47.147Z,52.30
2022-10-09T06:12:53.781Z,52.55
2022-10-09T06:15:00.522Z,52.63
2022-10-09T06:17:06.707Z,52.74
2022-10-09T06:19:18.513Z,52.88
2022-10-09T06:21:26.403Z,53.03
2022-10-09T06:23:33.068Z,53.13
2022-10-09T06:25:39.479Z,53.23
2022-10-09T06:27:45.860Z,53.37
2022-10-09T06:29:52.195Z,53.41
2022-10-09T06:31:58.651Z,53.59
2022-10-09T06:34:05.840Z,53.68
2022-10-09T06:36:15.861Z,53.97
2022-10-09T06:38:21.960Z,53.99
2022-10-09T06:40:28.409Z,54.06
2022-10-09T06:42:34.304Z,54.21
2022-10-09T06:44:46.764Z,54.24
2022-10-09T06:46:52.689Z,54.45
2022-10-09T06:49:00.892Z,54.52
2022-10-09T06:51:08.656Z,54.69
2022-10-09T06:53:14.583Z,54.78
2022-10-09T06:55:21.709Z,54.93
2022-10-09T06:57:30.114Z,55.02
2022-10-09T06:59:36.161Z,55.17
2022-10-09T07:01:42.765Z,55.30
2022-10-09T07:03:54.230Z,55.52
2022-10-09T07:06:16.811Z,55.69
2022-10-09T07:08:22.877Z,55.78
2022-10-09T07:10:29.485Z,55.85
2022-10-09T07:12:39.060Z,55.91
2022-10-09T07:14:45.064Z,55.90
2022-10-09T07:16:53.030Z,56.00
2022-10-09T07:19:01.277Z,56.08
2022-10-09T07:21:09.908Z,56.17
2022-10-09T07:23:15.901Z,56.27
2022-10-09T07:25:21.950Z,56.31
2022-10-09T07:27:28.121Z,56.47
2022-10-09T07:29:34.132Z,56.54
2022-10-09T07:31:40.133Z,56.65
2022-10-09T07:33:50.190Z,56.71
2022-10-09T07:35:57.652Z,56.70
2022-10-09T07:38:04.768Z,56.79
2022-10-09T07:40:11.549Z,57.02
2022-10-09T07:42:17.991Z,57.11
2022-10-09T07:44:24.446Z,57.24
2022-10-09T07:46:33.722Z,57.34
2022-10-09T07:48:41.060Z,57.49
2022-10-09T07:50:47.385Z,57.49
2022-10-09T07:52:53.470Z,57.70
2022-10-09T07:55:00.032Z,57.78
2022-10-09T07:57:06.747Z,57.89
2022-10-09T07:59:17.398Z,57.92
2022-10-09T08:01:25.359Z,58.02
2022-10-09T08:03:31.959Z,58.01
2022-10-09T08:05:38.555Z,58.17
2022-10-09T08:07:45.025Z,58.20
2022-10-09T08:09:51.345Z,58.31
2022-10-09T08:11:58.536Z,58.42
2022-10-09T08:14:05.401Z,58.62
2022-10-09T08:16:12.128Z,58.80
2022-10-09T08:18:18.163Z,58.96
2022-10-09T08:20:24.565Z,59.02
2022-10-09T08:22:30.644Z,59.13
2022-10-09T08:24:36.603Z,59.21
2022-10-09T08:26:44.085Z,59.23
2022-10-09T08:29:01.599Z,59.25
2022-10-09T08:31:15.364Z,59.32
2022-10-09T08:33:23.116Z,59.38
2022-10-09T08:35:33.663Z,59.45
2022-10-09T08:37:41.685Z,59.63
2022-10-09T08:39:48.279Z,59.76
2022-10-09T08:41:59.665Z,59.87
2022-10-09T08:44:19.898Z,59.84
2022-10-09T08:46:33.796Z,59.95
2022-10-09T08:48:45.629Z,59.91
2022-10-09T08:50:54.710Z,60.10
2022-10-09T08:53:31.441Z,60.26
2022-10-09T08:55:52.187Z,60.36
2022-10-09T08:58:06.741Z,60.39
2022-10-09T09:00:21.702Z,60.51
2022-10-09T09:02:51.529Z,60.62
2022-10-09T09:05:03.652Z,60.69
2022-10-09T09:07:12.498Z,60.92
2022-10-09T09:09:19.662Z,61.01
2022-10-09T09:11:50.277Z,61.13
2022-10-09T09:14:30.484Z,61.10
2022-10-09T09:16:40.005Z,61.24
2022-10-09T09:18:46.190Z,61.30
2022-10-09T09:21:11.801Z,61.33
2022-10-09T09:23:18.577Z,61.36
2022-10-09T09:25:32.392Z,61.50
2022-10-09T09:27:39.861Z,61.54
2022-10-09T09:30:04.144Z,61.50
2022-10-09T09:32:19.076Z,61.54
2022-10-09T09:34:37.487Z,61.54
2022-10-09T09:36:53.243Z,61.52
2022-10-09T09:39:49.875Z,61.46
2022-10-09T09:41:26.434Z,61.46
2022-10-09T09:43:32.595Z,61.52
2022-10-09T09:45:38.774Z,61.62
2022-10-09T09:47:51.221Z,61.68
2022-10-09T09:50:03.659Z,61.79
2022-10-09T09:52:10.988Z,61.72
2022-10-09T09:54:28.744Z,61.85
2022-10-09T09:57:11.045Z,62.10
2022-10-09T09:59:35.246Z,62.11
2022-10-09T10:01:41.630Z,62.11
2022-10-09T10:03:54.173Z,62.19
2022-10-09T10:06:00.245Z,62.37
2022-10-09T10:08:27.275Z,62.46
2022-10-09T10:10:33.348Z,62.55
2022-10-09T10:13:00.315Z,62.67
2022-10-09T10:15:06.715Z,62.79
2022-10-09T10:17:33.807Z,62.76
2022-10-09T10:19:41.233Z,62.94
2022-10-09T10:22:01.463Z,62.97
2022-10-09T10:24:13.434Z,63.05
2022-10-09T10:26:32.526Z,63.15
2022-10-09T10:28:53.202Z,63.10
2022-10-09T10:31:03.396Z,63.19
2022-10-09T10:33:23.781Z,63.25
2022-10-09T10:35:34.170Z,63.29
2022-10-09T10:37:49.054Z,63.38
2022-10-09T10:40:13.604Z,63.42
2022-10-09T10:43:00.274Z,63.55
2022-10-09T10:45:20.397Z,63.69
2022-10-09T10:47:31.413Z,63.66
2022-10-09T10:49:37.491Z,63.57
2022-10-09T10:52:12.022Z,63.61
2022-10-09T10:54:28.190Z,63.71
2022-10-09T10:56:45.626Z,63.82
2022-10-09T10:59:03.873Z,63.90
2022-10-09T11:01:28.092Z,64.07
2022-10-09T11:03:50.777Z,63.99
2022-10-09T11:06:04.059Z,64.00
2022-10-09T11:08:10.185Z,63.92
2022-10-09T11:10:22.105Z,63.85
2022-10-09T11:12:46.864Z,63.90
2022-10-09T11:15:09.843Z,63.94
2022-10-09T11:17:43.191Z,64.10
2022-10-09T11:20:18.431Z,64.21
2022-10-09T11:23:01.483Z,64.29
2022-10-09T11:25:47.492Z,64.45
2022-10-09T11:28:06.227Z,64.53
2022-10-09T11:30:18.020Z,64.62
2022-10-09T11:32:32.055Z,64.65
2022-10-09T11:34:47.805Z,64.65
2022-10-09T11:36:54.707Z,64.73
2022-10-09T11:39:04.433Z,64.79
2022-10-09T11:41:10.956Z,64.75
2022-10-09T11:43:27.319Z,64.85
2022-10-09T11:45:45.624Z,65.01
2022-10-09T11:48:20.825Z,65.04
2022-10-09T11:50:51.221Z,65.11
2022-10-09T11:53:14.990Z,65.04
2022-10-09T11:55:23.132Z,65.13
2022-10-09T11:57:31.198Z,65.17
2022-10-09T11:59:43.195Z,65.27
2022-10-09T12:01:49.897Z,65.31
2022-10-09T12:04:14.744Z,65.33
2022-10-09T12:06:23.467Z,65.48
2022-10-09T12:08:30.132Z,65.45
2022-10-09T12:10:36.929Z,65.55
2022-10-09T12:12:44.284Z,65.62
2022-10-09T12:14:53.049Z,65.71
2022-10-09T12:17:00.783Z,65.81
2022-10-09T12:19:16.593Z,65.75
2022-10-09T12:21:30.253Z,65.89
2022-10-09T12:23:41.567Z,66.01
2022-10-09T12:25:48.789Z,65.84
2022-10-09T12:28:00.098Z,65.93
2022-10-09T12:30:15.935Z,65.88
2022-10-09T12:32:40.558Z,65.95
2022-10-09T12:34:51.471Z,66.05
2022-10-09T12:37:21.215Z,66.01
2022-10-09T12:39:27.585Z,66.09
2022-10-09T12:41:37.532Z,66.20
2022-10-09T12:43:47.660Z,66.19
2022-10-09T12:45:55.137Z,66.14
2022-10-09T12:48:11.914Z,66.08
2022-10-09T12:50:18.430Z,66.10
2022-10-09T12:52:24.677Z,66.34
2022-10-09T12:54:32.849Z,66.53
2022-10-09T12:56:41.001Z,66.51
2022-10-09T12:58:47.283Z,66.63
2022-10-09T13:00:56.994Z,66.61
2022-10-09T13:03:03.607Z,66.61
2022-10-09T13:05:10.101Z,66.81
2022-10-09T13:07:23.055Z,66.83
2022-10-09T13:09:31.409Z,66.97
2022-10-09T13:11:41.816Z,66.99
2022-10-09T13:13:53.383Z,67.14
2022-10-09T13:16:01.626Z,67.19
2022-10-09T13:18:25.791Z,67.30
2022-10-09T13:20:34.084Z,67.40
2022-10-09T13:22:40.999Z,67.34
2022-10-09T13:24:48.256Z,67.39
2022-10-09T13:26:54.262Z,67.56
2022-10-09T13:29:03.743Z,67.68
2022-10-09T13:31:10.563Z,67.74
2022-10-09T13:33:18.181Z,67.75
2022-10-09T13:35:24.703Z,67.74
2022-10-09T13:37:31.003Z,67.68
2022-10-09T13:39:37.298Z,67.81
2022-10-09T13:41:47.387Z,67.74
2022-10-09T13:43:54.889Z,67.87
2022-10-09T13:46:01.096Z,68.08
2022-10-09T13:48:07.174Z,67.97
2022-10-09T13:50:15.926Z,68.01
2022-10-09T13:52:21.968Z,68.10
2022-10-09T13:54:28.170Z,67.93
2022-10-09T13:56:34.763Z,68.06
2022-10-09T13:58:40.919Z,68.12
2022-10-09T14:00:47.844Z,67.97
2022-10-09T14:02:53.915Z,67.91
2022-10-09T14:04:59.962Z,68.03
2022-10-09T14:07:06.493Z,68.03
2022-10-09T14:09:12.979Z,68.07
2022-10-09T14:11:19.321Z,68.03
2022-10-09T14:13:25.685Z,67.92
2022-10-09T14:15:32.010Z,68.15
2022-10-09T14:17:38.388Z,68.12
2022-10-09T14:19:45.070Z,68.17
2022-10-09T14:21:51.534Z,68.17
2022-10-09T14:24:00.116Z,68.23
2022-10-09T14:26:07.982Z,68.35
2022-10-09T14:28:14.417Z,68.28
2022-10-09T14:30:20.601Z,68.23
2022-10-09T14:32:26.821Z,68.29
2022-10-09T14:34:32.784Z,68.31
2022-10-09T14:36:41.556Z,68.34
2022-10-09T14:38:49.422Z,68.33
2022-10-09T14:40:57.367Z,68.30
2022-10-09T14:43:03.488Z,68.36
2022-10-09T14:45:11.490Z,68.73
2022-10-09T14:47:17.529Z,69.09
2022-10-09T14:49:23.595Z,69.25
2022-10-09T14:51:32.538Z,69.47
2022-10-09T14:53:41.054Z,69.16
2022-10-09T14:55:47.568Z,68.77
2022-10-09T14:57:54.168Z,68.56
2022-10-09T15:00:00.963Z,68.74
2022-10-09T15:02:08.310Z,68.68
2022-10-09T15:04:16.202Z,68.48
2022-10-09T15:06:25.242Z,68.11
2022-10-09T15:08:32.550Z,67.69
2022-10-09T15:10:38.929Z,67.34
2022-10-09T15:12:45.357Z,66.94
2022-10-09T15:14:51.938Z,66.56
2022-10-09T15:16:58.515Z,66.22
2022-10-09T15:19:06.690Z,65.79
2022-10-09T15:21:22.764Z,65.45
2022-10-09T15:23:29.884Z,65.11
2022-10-09T15:25:36.206Z,64.81
2022-10-09T15:27:42.894Z,64.43
2022-10-09T15:29:49.564Z,64.07
2022-10-09T15:31:56.139Z,63.71
2022-10-09T15:34:02.803Z,63.49
2022-10-09T15:36:08.898Z,63.46
2022-10-09T15:38:16.871Z,63.31
2022-10-09T15:40:22.956Z,63.34
2022-10-09T15:42:29.682Z,63.30
2022-10-09T15:44:35.743Z,63.10
2022-10-09T15:46:41.848Z,62.84
2022-10-09T15:48:48.767Z,62.58
2022-10-09T15:50:54.749Z,62.29
2022-10-09T15:53:01.082Z,61.96
2022-10-09T15:55:07.854Z,61.76
2022-10-09T15:57:13.918Z,61.35
2022-10-09T15:59:19.872Z,61.04
2022-10-09T16:01:26.891Z,60.65
2022-10-09T16:03:36.974Z,60.52
2022-10-09T16:05:48.083Z,60.11
2022-10-09T16:07:54.566Z,59.41
2022-10-09T16:10:00.927Z,59.26
2022-10-09T16:12:07.082Z,58.85
2022-10-09T16:14:12.993Z,58.94
2022-10-09T16:16:23.748Z,58.57
2022-10-09T16:18:29.836Z,58.28
2022-10-09T16:20:37.602Z,58.21
2022-10-09T16:22:44.042Z,58.21
2022-10-09T16:24:50.116Z,58.08
2022-10-09T16:26:56.290Z,57.92
2022-10-09T16:29:02.437Z,57.70
2022-10-09T16:31:08.642Z,57.27
2022-10-09T16:33:14.602Z,57.12
2022-10-09T16:35:21.070Z,56.78
2022-10-09T16:37:27.092Z,56.44
2022-10-09T16:39:33.438Z,56.33
2022-10-09T16:41:41.952Z,55.88
2022-10-09T16:43:50.078Z,55.42
2022-10-09T16:45:56.026Z,54.94
2022-10-09T16:48:02.423Z,54.32
2022-10-09T16:50:09.520Z,53.95
2022-10-09T16:52:15.867Z,53.65
2022-10-09T16:54:21.814Z,53.25
2022-10-09T16:56:34.276Z,53.18
2022-10-09T16:58:41.481Z,52.78
2022-10-09T17:00:47.959Z,52.75
2022-10-09T17:02:53.994Z,52.25
2022-10-09T17:05:00.053Z,51.71
2022-10-09T17:07:06.784Z,51.12
2022-10-09T17:09:14.511Z,50.57
2022-10-09T17:11:21.048Z,50.00
2022-10-09T17:13:27.917Z,49.61
2022-10-09T17:15:34.333Z,49.13
2022-10-09T17:17:40.859Z,48.51
2022-10-09T17:19:47.477Z,48.01
2022-10-09T17:21:54.135Z,47.87
2022-10-09T17:24:02.179Z,47.75
2022-10-09T17:26:14.127Z,47.85
2022-10-09T17:28:20.810Z,47.89
2022-10-09T17:30:27.980Z,47.54
2022-10-09T17:32:34.653Z,47.32
2022-10-09T17:34:44.187Z,46.99
2022-10-09T17:36:50.141Z,47.04
2022-10-09T17:38:56.921Z,47.10
2022-10-09T17:41:08.219Z,47.05
2022-10-09T17:43:14.197Z,46.80
2022-10-09T17:45:20.321Z,46.68
2022-10-09T17:47:26.366Z,46.47
2022-10-09T17:49:32.938Z,46.35
2022-10-09T17:51:41.331Z,45.91
2022-10-09T17:53:48.291Z,45.88
2022-10-09T17:55:56.959Z,45.50
2022-10-09T17:58:03.387Z,45.09
2022-10-09T18:00:11.815Z,44.97
2022-10-09T18:02:18.334Z,44.94
2022-10-09T18:04:25.342Z,44.68
2022-10-09T18:06:36.017Z,44.55
2022-10-09T18:08:42.535Z,44.18
2022-10-09T18:10:58.166Z,43.71
2022-10-09T18:13:07.966Z,43.29
2022-10-09T18:15:14.074Z,43.02
2022-10-09T18:17:20.090Z,42.57
2022-10-09T18:19:26.162Z,42.44
2022-10-09T18:21:32.421Z,42.50
2022-10-09T18:23:38.900Z,42.07
2022-10-09T18:25:46.072Z,41.79
2022-10-09T18:27:52.546Z,41.49
2022-10-09T18:29:58.897Z,41.36
2022-10-09T18:32:05.037Z,41.22
2022-10-09T18:34:11.790Z,41.16
2022-10-09T18:36:24.094Z,40.86
2022-10-09T18:38:30.083Z,40.61
2022-10-09T18:40:45.873Z,40.49
2022-10-09T18:42:53.532Z,40.18
2022-10-09T18:45:00.032Z,40.17
2022-10-09T18:47:06.316Z,40.13
2022-10-09T18:49:15.218Z,39.93
2022-10-09T18:51:25.270Z,39.32
2022-10-09T18:53:32.638Z,39.31
2022-10-09T18:55:38.682Z,39.05
2022-10-09T18:57:45.584Z,38.89
2022-10-09T18:59:53.100Z,38.63
2022-10-09T19:01:59.219Z,38.74
2022-10-09T19:04:05.609Z,38.51
2022-10-09T19:06:11.737Z,38.46
2022-10-09T19:08:17.847Z,38.57
2022-10-09T19:10:24.099Z,38.48
2022-10-09T19:12:30.195Z,38.21
2022-10-09T19:14:37.427Z,37.92
2022-10-09T19:16:43.895Z,38.03
2022-10-09T19:18:49.964Z,37.72
2022-10-09T19:20:55.980Z,37.74
2022-10-09T19:23:02.569Z,37.49
2022-10-09T19:25:09.184Z,37.28
2022-10-09T19:27:16.065Z,37.05
2022-10-09T19:29:22.381Z,37.06
2022-10-09T19:31:28.907Z,36.99
2022-10-09T19:33:35.575Z,36.71
2022-10-09T19:35:54.364Z,36.68
2022-10-09T19:38:00.793Z,36.55
2022-10-09T19:40:07.688Z,36.48
2022-10-09T19:42:13.925Z,36.42
2022-10-09T19:44:21.036Z,36.19
2022-10-09T19:46:28.219Z,35.61
2022-10-09T19:48:35.666Z,35.53
2022-10-09T19:50:44.416Z,35.12
2022-10-09T19:52:50.672Z,35.16
2022-10-09T19:54:57.131Z,34.79
2022-10-09T19:57:03.872Z,34.89
2022-10-09T19:59:16.094Z,35.37
2022-10-09T20:01:25.787Z,35.02
2022-10-09T20:03:32.304Z,34.63
2022-10-09T20:05:39.229Z,34.55
2022-10-09T20:07:45.643Z,34.32
2022-10-09T20:09:51.718Z,34.50
2022-10-09T20:11:57.778Z,34.31
2022-10-09T20:14:05.185Z,34.54
2022-10-09T20:16:14.457Z,34.64
2022-10-09T20:18:21.214Z,34.16
2022-10-09T20:20:28.206Z,34.30
2022-10-09T20:22:34.818Z,34.20
2022-10-09T20:24:41.316Z,34.03
2022-10-09T20:26:47.816Z,34.37
2022-10-09T20:28:57.396Z,33.87
2022-10-09T20:31:07.625Z,33.62
2022-10-09T20:33:13.971Z,33.72
2022-10-09T20:35:20.584Z,33.97
2022-10-09T20:37:27.328Z,33.94
2022-10-09T20:39:33.752Z,33.82
2022-10-09T20:41:41.167Z,33.34
2022-10-09T20:43:52.741Z,33.40
2022-10-09T20:45:59.497Z,33.45
2022-10-09T20:48:05.875Z,33.36
2022-10-09T20:50:12.939Z,33.26
2022-10-09T20:52:19.230Z,32.96
2022-10-09T20:54:25.903Z,32.81
2022-10-09T20:56:33.725Z,33.07
2022-10-09T20:58:40.815Z,33.14
2022-10-09T21:00:46.732Z,32.84
2022-10-09T21:02:53.078Z,33.03
2022-10-09T21:04:59.394Z,32.88
2022-10-09T21:07:05.571Z,32.88
2022-10-09T21:09:11.978Z,32.77
2022-10-09T21:11:19.743Z,32.78
2022-10-09T21:13:25.929Z,32.74
2022-10-09T21:15:32.504Z,32.87
2022-10-09T21:17:38.677Z,33.00
2022-10-09T21:19:44.917Z,33.19
2022-10-09T21:21:51.537Z,33.04
2022-10-09T21:23:59.776Z,32.86
2022-10-09T21:26:06.693Z,32.83
2022-10-09T21:28:13.066Z,32.85
2022-10-09T21:30:19.756Z,32.90
2022-10-09T21:32:25.985Z,32.58
2022-10-09T21:34:32.549Z,32.53
2022-10-09T21:37:19.827Z,32.41
2022-10-09T21:39:21.032Z,32.52
2022-10-09T21:41:27.758Z,32.58
2022-10-09T21:43:34.332Z,32.31
2022-10-09T21:45:41.824Z,32.30
2022-10-09T21:47:47.969Z,32.33
2022-10-09T21:49:54.088Z,32.33
2022-10-09T21:52:00.671Z,32.27
2022-10-09T21:54:06.759Z,32.40
2022-10-09T21:56:13.683Z,32.34
2022-10-09T21:58:19.922Z,32.08
2022-10-09T22:00:26.367Z,31.91
2022-10-09T22:02:33.089Z,32.09
2022-10-09T22:04:39.057Z,31.98
2022-10-09T22:06:45.141Z,31.95
2022-10-09T22:08:51.565Z,31.81
2022-10-09T22:10:57.635Z,32.09
2022-10-09T22:13:04.151Z,32.30
2022-10-09T22:15:10.981Z,32.36
2022-10-09T22:17:17.367Z,32.31
2022-10-09T22:19:23.671Z,32.56
2022-10-09T22:21:30.117Z,32.20
2022-10-09T22:23:36.689Z,32.23
2022-10-09T22:25:43.057Z,32.23
2022-10-09T22:27:49.102Z,32.10
2022-10-09T22:29:55.250Z,32.15
2022-10-09T22:32:01.630Z,32.01
2022-10-09T22:34:08.088Z,31.99
2022-10-09T22:36:17.238Z,31.89
2022-10-09T22:38:23.440Z,31.90
2022-10-09T22:40:29.510Z,32.02
2022-10-09T22:42:35.903Z,32.27
2022-10-09T22:44:42.530Z,32.21
2022-10-09T22:46:52.321Z,32.17
2022-10-09T22:48:59.001Z,32.08
2022-10-09T22:51:07.452Z,32.17
2022-10-09T22:53:13.930Z,32.26
2022-10-09T22:55:20.590Z,32.06
2022-10-09T22:57:27.923Z,32.02
2022-10-09T22:59:34.075Z,31.91
2022-10-09T23:01:49.400Z,31.70
2022-10-09T23:03:55.468Z,31.87
2022-10-09T23:06:09.536Z,31.83
2022-10-09T23:08:15.912Z,31.88
2022-10-09T23:10:22.023Z,31.84
2022-10-09T23:12:28.193Z,31.69
2022-10-09T23:14:34.242Z,31.73
2022-10-09T23:16:40.948Z,31.64
2022-10-09T23:18:47.326Z,31.68
2022-10-09T23:20:53.359Z,31.57
2022-10-09T23:22:59.419Z,31.53
2022-10-09T23:25:05.890Z,31.66
2022-10-09T23:27:12.182Z,31.65
2022-10-09T23:29:21.769Z,31.51
2022-10-09T23:31:29.661Z,31.48
2022-10-09T23:33:36.239Z,31.49
2022-10-09T23:35:45.628Z,31.45
2022-10-09T23:37:54.605Z,31.46
2022-10-09T23:40:01.085Z,31.52
2022-10-09T23:42:07.058Z,31.31
2022-10-09T23:44:13.366Z,31.20
2022-10-09T23:46:22.172Z,31.18
2022-10-09T23:48:29.289Z,31.23
2022-10-09T23:50:35.247Z,31.02
2022-10-09T23:52:41.248Z,31.41
2022-10-09T23:54:47.183Z,31.43
2022-10-09T23:56:53.166Z,31.36
2022-10-09T23:59:01.067Z,31.63
